sensor_id;sensor_type;location;lat;lon;timestamp;pressure;altitude;pressure_sealevel;temperature;humidity
69784;BME280;57054;51.978;4.498;2023-04-07T00:00:20;101535.25;;;7.81;100.00
69784;BME280;57054;51.978;4.498;2023-04-07T00:02:45;101537.06;;;7.78;100.00
69784;BME280;57054;51.978;4.498;2023-04-07T00:05:11;101539.66;;;7.78;100.00
69784;BME280;57054;51.978;4.498;2023-04-07T00:07:37;101537.03;;;7.79;100.00
69784;BME280;57054;51.978;4.498;2023-04-07T00:10:02;101541.31;;;7.82;100.00
69784;BME280;57054;51.978;4.498;2023-04-07T00:12:28;101544.75;;;7.84;100.00
69784;BME280;57054;51.978;4.498;2023-04-07T00:14:53;101543.00;;;7.86;100.00
69784;BME280;57054;51.978;4.498;2023-04-07T00:17:18;101537.75;;;7.87;100.00
69784;BME280;57054;51.978;4.498;2023-04-07T00:19:44;101535.13;;;7.87;100.00
69784;BME280;57054;51.978;4.498;2023-04-07T00:22:09;101539.50;;;7.87;100.00
69784;BME280;57054;51.978;4.498;2023-04-07T00:24:35;101549.94;;;7.87;100.00
69784;BME280;57054;51.978;4.498;2023-04-07T00:27:00;101533.44;;;7.86;100.00
69784;BME280;57054;51.978;4.498;2023-04-07T00:29:26;101540.34;;;7.87;100.00
69784;BME280;57054;51.978;4.498;2023-04-07T00:31:51;101539.47;;;7.88;100.00
69784;BME280;57054;51.978;4.498;2023-04-07T00:34:17;101543.81;;;7.90;100.00
69784;BME280;57054;51.978;4.498;2023-04-07T00:36:42;101545.50;;;7.91;100.00
69784;BME280;57054;51.978;4.498;2023-04-07T00:39:07;101548.16;;;7.87;100.00
69784;BME280;57054;51.978;4.498;2023-04-07T00:41:33;101549.94;;;7.85;100.00
69784;BME280;57054;51.978;4.498;2023-04-07T00:44:02;101552.56;;;7.85;100.00
69784;BME280;57054;51.978;4.498;2023-04-07T00:46:27;101548.25;;;7.84;100.00
69784;BME280;57054;51.978;4.498;2023-04-07T00:48:53;101556.97;;;7.82;100.00
69784;BME280;57054;51.978;4.498;2023-04-07T00:51:22;101547.41;;;7.82;100.00
69784;BME280;57054;51.978;4.498;2023-04-07T00:53:48;101550.91;;;7.81;100.00
69784;BME280;57054;51.978;4.498;2023-04-07T00:56:14;101546.56;;;7.80;100.00
69784;BME280;57054;51.978;4.498;2023-04-07T00:58:39;101551.81;;;7.79;100.00
69784;BME280;57054;51.978;4.498;2023-04-07T01:01:23;101548.34;;;7.78;100.00
69784;BME280;57054;51.978;4.498;2023-04-07T01:04:00;101546.66;;;7.76;100.00
69784;BME280;57054;51.978;4.498;2023-04-07T01:06:30;101544.97;;;7.73;100.00
69784;BME280;57054;51.978;4.498;2023-04-07T01:09:15;101545.84;;;7.72;100.00
69784;BME280;57054;51.978;4.498;2023-04-07T01:14:32;101555.44;;;7.70;100.00
69784;BME280;57054;51.978;4.498;2023-04-07T01:17:02;101548.53;;;7.67;100.00
69784;BME280;57054;51.978;4.498;2023-04-07T01:19:39;101553.78;;;7.66;100.00
69784;BME280;57054;51.978;4.498;2023-04-07T01:22:13;101556.44;;;7.63;100.00
69784;BME280;57054;51.978;4.498;2023-04-07T01:29:52;101550.47;;;7.56;100.00
69784;BME280;57054;51.978;4.498;2023-04-07T01:32:18;101560.91;;;7.55;100.00
69784;BME280;57054;51.978;4.498;2023-04-07T01:34:49;101566.16;;;7.53;100.00
69784;BME280;57054;51.978;4.498;2023-04-07T01:37:16;101567.97;;;7.49;100.00
69784;BME280;57054;51.978;4.498;2023-04-07T01:39:41;101563.59;;;7.50;100.00
69784;BME280;57054;51.978;4.498;2023-04-07T01:42:07;101554.97;;;7.46;100.00
69784;BME280;57054;51.978;4.498;2023-04-07T01:44:34;101563.66;;;7.45;100.00
69784;BME280;57054;51.978;4.498;2023-04-07T01:47:00;101561.03;;;7.47;100.00
69784;BME280;57054;51.978;4.498;2023-04-07T01:49:27;101559.28;;;7.47;100.00
69784;BME280;57054;51.978;4.498;2023-04-07T01:51:54;101562.78;;;7.48;100.00
69784;BME280;57054;51.978;4.498;2023-04-07T01:54:20;101561.88;;;7.47;100.00
69784;BME280;57054;51.978;4.498;2023-04-07T01:56:46;101565.41;;;7.46;100.00
69784;BME280;57054;51.978;4.498;2023-04-07T01:59:11;101561.06;;;7.45;100.00
69784;BME280;57054;51.978;4.498;2023-04-07T02:01:37;101569.75;;;7.46;100.00
69784;BME280;57054;51.978;4.498;2023-04-07T02:04:34;101566.28;;;7.45;100.00
69784;BME280;57054;51.978;4.498;2023-04-07T02:07:02;101561.06;;;7.44;100.00
69784;BME280;57054;51.978;4.498;2023-04-07T02:09:31;101566.28;;;7.44;100.00
69784;BME280;57054;51.978;4.498;2023-04-07T02:11:59;101563.75;;;7.42;100.00
69784;BME280;57054;51.978;4.498;2023-04-07T02:14:25;101561.13;;;7.42;100.00
69784;BME280;57054;51.978;4.498;2023-04-07T02:16:52;101554.19;;;7.41;100.00
69784;BME280;57054;51.978;4.498;2023-04-07T02:19:18;101556.78;;;7.41;100.00
69784;BME280;57054;51.978;4.498;2023-04-07T02:21:44;101562.00;;;7.41;100.00
69784;BME280;57054;51.978;4.498;2023-04-07T02:24:10;101562.00;;;7.41;100.00
69784;BME280;57054;51.978;4.498;2023-04-07T02:26:36;101562.88;;;7.40;99.97
69784;BME280;57054;51.978;4.498;2023-04-07T02:29:02;101571.59;;;7.39;100.00
69784;BME280;57054;51.978;4.498;2023-04-07T02:31:28;101565.53;;;7.37;99.82
69784;BME280;57054;51.978;4.498;2023-04-07T02:33:53;101562.97;;;7.36;99.95
69784;BME280;57054;51.978;4.498;2023-04-07T02:36:19;101557.78;;;7.33;99.85
69784;BME280;57054;51.978;4.498;2023-04-07T02:38:44;101560.41;;;7.33;99.75
69784;BME280;57054;51.978;4.498;2023-04-07T02:41:10;101567.38;;;7.30;99.75
69784;BME280;57054;51.978;4.498;2023-04-07T02:43:35;101563.13;;;7.25;99.34
69784;BME280;57054;51.978;4.498;2023-04-07T02:46:01;101568.38;;;7.20;99.72
69784;BME280;57054;51.978;4.498;2023-04-07T02:48:26;101570.19;;;7.17;99.99
69784;BME280;57054;51.978;4.498;2023-04-07T02:50:51;101571.09;;;7.16;100.00
69784;BME280;57054;51.978;4.498;2023-04-07T02:53:17;101565.03;;;7.14;100.00
69784;BME280;57054;51.978;4.498;2023-04-07T02:55:42;101559.81;;;7.14;100.00
69784;BME280;57054;51.978;4.498;2023-04-07T02:58:08;101562.44;;;7.14;100.00
69784;BME280;57054;51.978;4.498;2023-04-07T03:00:33;101558.06;;;7.14;100.00
69784;BME280;57054;51.978;4.498;2023-04-07T03:02:59;101562.41;;;7.15;100.00
69784;BME280;57054;51.978;4.498;2023-04-07T03:05:24;101569.34;;;7.15;100.00
69784;BME280;57054;51.978;4.498;2023-04-07T03:07:49;101568.47;;;7.17;100.00
69784;BME280;57054;51.978;4.498;2023-04-07T03:10:15;101569.31;;;7.18;100.00
69784;BME280;57054;51.978;4.498;2023-04-07T03:12:40;101571.00;;;7.20;100.00
69784;BME280;57054;51.978;4.498;2023-04-07T03:15:06;101572.72;;;7.23;100.00
69784;BME280;57054;51.978;4.498;2023-04-07T03:17:32;101573.53;;;7.25;100.00
69784;BME280;57054;51.978;4.498;2023-04-07T03:19:57;101567.47;;;7.26;100.00
69784;BME280;57054;51.978;4.498;2023-04-07T03:22:23;101572.63;;;7.27;100.00
69784;BME280;57054;51.978;4.498;2023-04-07T03:24:48;101571.78;;;7.27;100.00
69784;BME280;57054;51.978;4.498;2023-04-07T03:27:13;101574.34;;;7.28;100.00
69784;BME280;57054;51.978;4.498;2023-04-07T03:29:41;101573.50;;;7.29;100.00
69784;BME280;57054;51.978;4.498;2023-04-07T03:32:06;101569.13;;;7.30;100.00
69784;BME280;57054;51.978;4.498;2023-04-07T03:34:32;101576.03;;;7.31;100.00
69784;BME280;57054;51.978;4.498;2023-04-07T03:36:57;101583.84;;;7.33;100.00
69784;BME280;57054;51.978;4.498;2023-04-07T03:39:23;101570.81;;;7.33;100.00
69784;BME280;57054;51.978;4.498;2023-04-07T03:41:48;101582.13;;;7.33;100.00
69784;BME280;57054;51.978;4.498;2023-04-07T03:44:13;101576.03;;;7.33;100.00
69784;BME280;57054;51.978;4.498;2023-04-07T03:46:39;101583.00;;;7.32;100.00
69784;BME280;57054;51.978;4.498;2023-04-07T03:49:04;101583.00;;;7.32;100.00
69784;BME280;57054;51.978;4.498;2023-04-07T03:51:30;101579.53;;;7.32;100.00
69784;BME280;57054;51.978;4.498;2023-04-07T03:53:57;101580.41;;;7.30;100.00
69784;BME280;57054;51.978;4.498;2023-04-07T03:56:25;101580.41;;;7.30;100.00
69784;BME280;57054;51.978;4.498;2023-04-07T03:58:50;101587.34;;;7.32;100.00
69784;BME280;57054;51.978;4.498;2023-04-07T04:01:16;101585.59;;;7.32;100.00
69784;BME280;57054;51.978;4.498;2023-04-07T04:03:41;101584.75;;;7.32;100.00
69784;BME280;57054;51.978;4.498;2023-04-07T04:06:06;101582.13;;;7.32;100.00
69784;BME280;57054;51.978;4.498;2023-04-07T04:08:32;101583.88;;;7.31;100.00
69784;BME280;57054;51.978;4.498;2023-04-07T04:10:58;101590.81;;;7.32;100.00
69784;BME280;57054;51.978;4.498;2023-04-07T04:13:23;101588.19;;;7.32;100.00
69784;BME280;57054;51.978;4.498;2023-04-07T04:15:49;101585.59;;;7.32;100.00
69784;BME280;57054;51.978;4.498;2023-04-07T04:18:14;101589.06;;;7.33;100.00
69784;BME280;57054;51.978;4.498;2023-04-07T04:20:40;101596.00;;;7.34;100.00
69784;BME280;57054;51.978;4.498;2023-04-07T04:23:05;101591.66;;;7.34;100.00
69784;BME280;57054;51.978;4.498;2023-04-07T04:25:31;101593.38;;;7.35;100.00
69784;BME280;57054;51.978;4.498;2023-04-07T04:27:56;101591.59;;;7.39;100.00
69784;BME280;57054;51.978;4.498;2023-04-07T04:30:21;101605.47;;;7.39;100.00
69784;BME280;57054;51.978;4.498;2023-04-07T04:32:47;101603.69;;;7.41;100.00
69784;BME280;57054;51.978;4.498;2023-04-07T04:35:12;101611.50;;;7.41;100.00
69784;BME280;57054;51.978;4.498;2023-04-07T04:37:37;101607.13;;;7.43;100.00
69784;BME280;57054;51.978;4.498;2023-04-07T04:40:03;101605.38;;;7.44;100.00
69784;BME280;57054;51.978;4.498;2023-04-07T04:42:32;101607.13;;;7.43;100.00
69784;BME280;57054;51.978;4.498;2023-04-07T04:44:58;101607.13;;;7.43;100.00
69784;BME280;57054;51.978;4.498;2023-04-07T04:47:23;101601.94;;;7.42;100.00
69784;BME280;57054;51.978;4.498;2023-04-07T04:49:48;101611.50;;;7.43;100.00
69784;BME280;57054;51.978;4.498;2023-04-07T04:52:14;101610.66;;;7.42;100.00
69784;BME280;57054;51.978;4.498;2023-04-07T04:54:39;101619.34;;;7.41;100.00
69784;BME280;57054;51.978;4.498;2023-04-07T04:57:04;101619.31;;;7.43;100.00
69784;BME280;57054;51.978;4.498;2023-04-07T04:59:30;101621.06;;;7.42;100.00
69784;BME280;57054;51.978;4.498;2023-04-07T05:01:55;101622.78;;;7.43;100.00
69784;BME280;57054;51.978;4.498;2023-04-07T05:04:20;101622.78;;;7.43;100.00
69784;BME280;57054;51.978;4.498;2023-04-07T05:06:46;101614.97;;;7.42;100.00
69784;BME280;57054;51.978;4.498;2023-04-07T05:09:11;101617.56;;;7.42;100.00
69784;BME280;57054;51.978;4.498;2023-04-07T05:11:37;101615.00;;;7.40;100.00
69784;BME280;57054;51.978;4.498;2023-04-07T05:14:02;101615.84;;;7.42;100.00
69784;BME280;57054;51.978;4.498;2023-04-07T05:16:27;101609.75;;;7.42;100.00
69784;BME280;57054;51.978;4.498;2023-04-07T05:18:53;101614.97;;;7.42;100.00
69784;BME280;57054;51.978;4.498;2023-04-07T05:21:18;101621.06;;;7.42;100.00
69784;BME280;57054;51.978;4.498;2023-04-07T05:23:46;101628.91;;;7.41;100.00
69784;BME280;57054;51.978;4.498;2023-04-07T05:26:11;101622.84;;;7.39;100.00
69784;BME280;57054;51.978;4.498;2023-04-07T05:28:37;101628.91;;;7.41;100.00
69784;BME280;57054;51.978;4.498;2023-04-07T05:31:02;101630.69;;;7.39;100.00
69784;BME280;57054;51.978;4.498;2023-04-07T05:33:27;101634.13;;;7.39;100.00
69784;BME280;57054;51.978;4.498;2023-04-07T05:35:53;101637.59;;;7.40;100.00
69784;BME280;57054;51.978;4.498;2023-04-07T05:38:18;101638.44;;;7.40;100.00
69784;BME280;57054;51.978;4.498;2023-04-07T05:40:44;101636.72;;;7.42;100.00
69784;BME280;57054;51.978;4.498;2023-04-07T05:43:09;101639.31;;;7.42;100.00
69784;BME280;57054;51.978;4.498;2023-04-07T05:45:35;101635.81;;;7.42;100.00
69784;BME280;57054;51.978;4.498;2023-04-07T05:48:00;101636.66;;;7.44;100.00
69784;BME280;57054;51.978;4.498;2023-04-07T05:50:26;101639.25;;;7.44;100.00
69784;BME280;57054;51.978;4.498;2023-04-07T05:52:51;101636.72;;;7.42;100.00
69784;BME280;57054;51.978;4.498;2023-04-07T05:55:16;101641.91;;;7.42;100.00
69784;BME280;57054;51.978;4.498;2023-04-07T05:57:42;101641.84;;;7.45;100.00
69784;BME280;57054;51.978;4.498;2023-04-07T06:00:08;101651.41;;;7.46;100.00
69784;BME280;57054;51.978;4.498;2023-04-07T06:02:34;101658.31;;;7.47;100.00
69784;BME280;57054;51.978;4.498;2023-04-07T06:05:00;101661.78;;;7.49;100.00
69784;BME280;57054;51.978;4.498;2023-04-07T06:07:25;101661.75;;;7.51;100.00
69784;BME280;57054;51.978;4.498;2023-04-07T06:09:51;101661.72;;;7.53;100.00
69784;BME280;57054;51.978;4.498;2023-04-07T06:12:16;101669.53;;;7.54;100.00
69784;BME280;57054;51.978;4.498;2023-04-07T06:14:42;101673.91;;;7.54;100.00
69784;BME280;57054;51.978;4.498;2023-04-07T06:17:07;101675.59;;;7.55;100.00
69784;BME280;57054;51.978;4.498;2023-04-07T06:19:32;101668.66;;;7.55;100.00
69784;BME280;57054;51.978;4.498;2023-04-07T06:21:58;101667.75;;;7.56;100.00
69784;BME280;57054;51.978;4.498;2023-04-07T06:24:23;101661.69;;;7.57;100.00
69784;BME280;57054;51.978;4.498;2023-04-07T06:26:50;101666.00;;;7.58;100.00
69784;BME280;57054;51.978;4.498;2023-04-07T06:29:15;101666.03;;;7.57;100.00
69784;BME280;57054;51.978;4.498;2023-04-07T06:31:41;101665.16;;;7.56;100.00
69784;BME280;57054;51.978;4.498;2023-04-07T06:34:06;101672.97;;;7.56;100.00
69784;BME280;57054;51.978;4.498;2023-04-07T06:36:32;101677.34;;;7.56;100.00
69784;BME280;57054;51.978;4.498;2023-04-07T06:38:58;101684.31;;;7.54;100.00
69784;BME280;57054;51.978;4.498;2023-04-07T06:41:23;101682.59;;;7.53;100.00
69784;BME280;57054;51.978;4.498;2023-04-07T06:43:49;101677.38;;;7.51;100.00
69784;BME280;57054;51.978;4.498;2023-04-07T06:46:17;101686.94;;;7.52;100.00
69784;BME280;57054;51.978;4.498;2023-04-07T06:48:43;101680.84;;;7.53;100.00
69784;BME280;57054;51.978;4.498;2023-04-07T06:51:08;101681.69;;;7.55;100.00
69784;BME280;57054;51.978;4.498;2023-04-07T06:53:34;101683.38;;;7.58;100.00
69784;BME280;57054;51.978;4.498;2023-04-07T06:56:07;101692.06;;;7.58;100.00
69784;BME280;57054;51.978;4.498;2023-04-07T06:58:33;101691.19;;;7.58;100.00
69784;BME280;57054;51.978;4.498;2023-04-07T07:00:59;101689.44;;;7.60;100.00
69784;BME280;57054;51.978;4.498;2023-04-07T07:03:25;101703.31;;;7.60;100.00
69784;BME280;57054;51.978;4.498;2023-04-07T07:05:53;101711.19;;;7.59;100.00
69784;BME280;57054;51.978;4.498;2023-04-07T07:08:18;101711.19;;;7.59;100.00
69784;BME280;57054;51.978;4.498;2023-04-07T07:10:44;101721.63;;;7.59;100.00
69784;BME280;57054;51.978;4.498;2023-04-07T07:13:09;101721.63;;;7.57;100.00
69784;BME280;57054;51.978;4.498;2023-04-07T07:15:34;101719.88;;;7.58;100.00
69784;BME280;57054;51.978;4.498;2023-04-07T07:18:00;101723.34;;;7.58;100.00
69784;BME280;57054;51.978;4.498;2023-04-07T07:20:25;101723.38;;;7.57;100.00
69784;BME280;57054;51.978;4.498;2023-04-07T07:22:51;101727.72;;;7.56;99.72
69784;BME280;57054;51.978;4.498;2023-04-07T07:25:17;101726.00;;;7.57;99.79
69784;BME280;57054;51.978;4.498;2023-04-07T07:27:42;101729.44;;;7.59;100.00
69784;BME280;57054;51.978;4.498;2023-04-07T07:30:08;101730.28;;;7.59;99.77
69784;BME280;57054;51.978;4.498;2023-04-07T07:32:33;101736.34;;;7.60;100.00
69784;BME280;57054;51.978;4.498;2023-04-07T07:34:59;101740.69;;;7.61;100.00
69784;BME280;57054;51.978;4.498;2023-04-07T07:37:24;101743.31;;;7.61;100.00
69784;BME280;57054;51.978;4.498;2023-04-07T07:39:50;101757.19;;;7.61;100.00
69784;BME280;57054;51.978;4.498;2023-04-07T07:42:15;101741.56;;;7.61;100.00
69784;BME280;57054;51.978;4.498;2023-04-07T07:44:40;101751.13;;;7.62;100.00
69784;BME280;57054;51.978;4.498;2023-04-07T07:47:06;101752.81;;;7.63;100.00
69784;BME280;57054;51.978;4.498;2023-04-07T07:49:31;101750.19;;;7.65;100.00
69784;BME280;57054;51.978;4.498;2023-04-07T07:51:57;101758.00;;;7.66;100.00
69784;BME280;57054;51.978;4.498;2023-04-07T07:54:23;101759.69;;;7.69;100.00
69784;BME280;57054;51.978;4.498;2023-04-07T07:56:49;101760.53;;;7.71;100.00
69784;BME280;57054;51.978;4.498;2023-04-07T07:59:14;101760.50;;;7.74;100.00
69784;BME280;57054;51.978;4.498;2023-04-07T08:01:40;101752.66;;;7.74;99.68
69784;BME280;57054;51.978;4.498;2023-04-07T08:04:05;101760.50;;;7.74;98.51
69784;BME280;57054;51.978;4.498;2023-04-07T08:06:30;101766.53;;;7.76;98.67
69784;BME280;57054;51.978;4.498;2023-04-07T08:08:56;101764.84;;;7.75;98.08
69784;BME280;57054;51.978;4.498;2023-04-07T08:11:21;101763.94;;;7.75;98.43
69784;BME280;57054;51.978;4.498;2023-04-07T08:13:47;101764.84;;;7.75;98.48
69784;BME280;57054;51.978;4.498;2023-04-07T08:16:12;101772.66;;;7.77;98.73
69784;BME280;57054;51.978;4.498;2023-04-07T08:18:38;101771.75;;;7.76;98.65
69784;BME280;57054;51.978;4.498;2023-04-07T08:21:04;101773.50;;;7.76;98.79
69784;BME280;57054;51.978;4.498;2023-04-07T08:23:30;101773.50;;;7.77;98.39
69784;BME280;57054;51.978;4.498;2023-04-07T08:25:55;101775.19;;;7.78;98.57
69784;BME280;57054;51.978;4.498;2023-04-07T08:28:21;101785.63;;;7.78;98.20
69784;BME280;57054;51.978;4.498;2023-04-07T08:30:47;101786.53;;;7.77;98.68
69784;BME280;57054;51.978;4.498;2023-04-07T08:33:12;101788.28;;;7.77;98.90
69784;BME280;57054;51.978;4.498;2023-04-07T08:35:38;101793.50;;;7.77;99.02
69784;BME280;57054;51.978;4.498;2023-04-07T08:38:03;101796.13;;;7.77;99.08
69784;BME280;57054;51.978;4.498;2023-04-07T08:40:30;101795.22;;;7.76;99.09
69784;BME280;57054;51.978;4.498;2023-04-07T08:42:57;101808.25;;;7.76;99.16
69784;BME280;57054;51.978;4.498;2023-04-07T08:45:24;101807.41;;;7.77;99.31
69784;BME280;57054;51.978;4.498;2023-04-07T08:47:54;101808.22;;;7.79;99.56
69784;BME280;57054;51.978;4.498;2023-04-07T08:50:25;101807.38;;;7.79;99.20
69784;BME280;57054;51.978;4.498;2023-04-07T08:52:55;101804.78;;;7.77;98.39
69784;BME280;57054;51.978;4.498;2023-04-07T08:55:22;101813.50;;;7.75;98.45
69784;BME280;57054;51.978;4.498;2023-04-07T08:57:48;101812.66;;;7.73;98.35
69784;BME280;57054;51.978;4.498;2023-04-07T09:00:14;101814.41;;;7.74;98.82
69784;BME280;57054;51.978;4.498;2023-04-07T09:02:42;101815.25;;;7.76;99.16
69784;BME280;57054;51.978;4.498;2023-04-07T09:05:12;101814.38;;;7.77;99.31
69784;BME280;57054;51.978;4.498;2023-04-07T09:07:38;101826.53;;;7.76;99.15
69784;BME280;57054;51.978;4.498;2023-04-07T09:10:07;101823.03;;;7.77;99.22
69784;BME280;57054;51.978;4.498;2023-04-07T09:12:33;101815.22;;;7.77;99.11
69784;BME280;57054;51.978;4.498;2023-04-07T09:14:59;101827.34;;;7.80;99.03
69784;BME280;57054;51.978;4.498;2023-04-07T09:17:26;101823.84;;;7.82;98.78
69784;BME280;57054;51.978;4.498;2023-04-07T09:19:55;101807.28;;;7.85;98.42
69784;BME280;57054;51.978;4.498;2023-04-07T09:22:41;101822.00;;;7.87;97.57
69784;BME280;57054;51.978;4.498;2023-04-07T09:25:12;101816.75;;;7.91;97.51
69784;BME280;57054;51.978;4.498;2023-04-07T09:27:38;101831.53;;;7.93;97.35
69784;BME280;57054;51.978;4.498;2023-04-07T09:30:11;101821.94;;;7.95;97.32
69784;BME280;57054;51.978;4.498;2023-04-07T09:32:37;101825.41;;;7.96;96.20
69784;BME280;57054;51.978;4.498;2023-04-07T09:35:03;101827.13;;;7.97;96.24
69784;BME280;57054;51.978;4.498;2023-04-07T09:37:28;101821.03;;;7.96;96.20
69784;BME280;57054;51.978;4.498;2023-04-07T09:39:53;101823.63;;;7.96;95.30
69784;BME280;57054;51.978;4.498;2023-04-07T09:42:19;101832.34;;;7.97;95.80
69784;BME280;57054;51.978;4.498;2023-04-07T09:44:45;101829.75;;;7.97;95.72
69784;BME280;57054;51.978;4.498;2023-04-07T09:47:11;101828.84;;;7.98;95.79
69784;BME280;57054;51.978;4.498;2023-04-07T09:49:51;101830.59;;;7.99;95.71
69784;BME280;57054;51.978;4.498;2023-04-07T09:52:18;101837.50;;;8.00;95.53
69784;BME280;57054;51.978;4.498;2023-04-07T09:54:45;101837.50;;;8.00;94.97
69784;BME280;57054;51.978;4.498;2023-04-07T09:57:11;101834.03;;;8.01;95.12
69784;BME280;57054;51.978;4.498;2023-04-07T09:59:39;101841.84;;;8.02;95.94
69784;BME280;57054;51.978;4.498;2023-04-07T10:02:06;101839.19;;;8.04;94.74
69784;BME280;57054;51.978;4.498;2023-04-07T10:04:32;101845.28;;;8.04;94.61
69784;BME280;57054;51.978;4.498;2023-04-07T10:06:58;101840.06;;;8.03;93.66
69784;BME280;57054;51.978;4.498;2023-04-07T10:09:27;101844.41;;;8.04;94.48
69784;BME280;57054;51.978;4.498;2023-04-07T10:11:54;101839.19;;;8.04;94.55
69784;BME280;57054;51.978;4.498;2023-04-07T10:14:29;101849.63;;;8.04;94.37
69784;BME280;57054;51.978;4.498;2023-04-07T10:16:55;101847.00;;;8.05;94.45
69784;BME280;57054;51.978;4.498;2023-04-07T10:19:21;101853.09;;;8.06;94.29
69784;BME280;57054;51.978;4.498;2023-04-07T10:21:50;101841.78;;;8.05;94.71
69784;BME280;57054;51.978;4.498;2023-04-07T10:24:45;101846.13;;;8.05;95.45
69784;BME280;57054;51.978;4.498;2023-04-07T10:27:20;101848.75;;;8.05;95.26
69784;BME280;57054;51.978;4.498;2023-04-07T10:29:48;101851.34;;;8.05;94.99
69784;BME280;57054;51.978;4.498;2023-04-07T10:32:15;101852.22;;;8.05;95.28
69784;BME280;57054;51.978;4.498;2023-04-07T10:37:17;101850.41;;;8.09;95.26
69784;BME280;57054;51.978;4.498;2023-04-07T10:39:46;101856.47;;;8.11;95.55
69784;BME280;57054;51.978;4.498;2023-04-07T10:45:02;101869.47;;;8.14;95.29
69784;BME280;57054;51.978;4.498;2023-04-07T10:47:28;101873.00;;;8.13;94.85
69784;BME280;57054;51.978;4.498;2023-04-07T10:52:46;101865.22;;;8.08;94.76
69784;BME280;57054;51.978;4.498;2023-04-07T10:55:36;101870.44;;;8.08;95.23
69784;BME280;57054;51.978;4.498;2023-04-07T11:03:25;101867.00;;;8.06;97.00
69784;BME280;57054;51.978;4.498;2023-04-07T11:05:50;101873.97;;;8.06;97.00
69784;BME280;57054;51.978;4.498;2023-04-07T11:08:35;101869.59;;;8.06;96.86
69784;BME280;57054;51.978;4.498;2023-04-07T11:11:01;101877.41;;;8.08;97.21
69784;BME280;57054;51.978;4.498;2023-04-07T11:13:27;101879.13;;;8.09;97.48
69784;BME280;57054;51.978;4.498;2023-04-07T11:15:53;101880.00;;;8.10;97.49
69784;BME280;57054;51.978;4.498;2023-04-07T11:18:20;101886.94;;;8.11;96.80
69784;BME280;57054;51.978;4.498;2023-04-07T11:20:54;101876.50;;;8.11;96.81
69784;BME280;57054;51.978;4.498;2023-04-07T11:23:22;101878.22;;;8.12;96.76
69784;BME280;57054;51.978;4.498;2023-04-07T11:25:50;101884.31;;;8.12;96.47
69784;BME280;57054;51.978;4.498;2023-04-07T11:28:16;101884.28;;;8.14;96.45
69784;BME280;57054;51.978;4.498;2023-04-07T11:30:52;101882.53;;;8.14;96.48
69784;BME280;57054;51.978;4.498;2023-04-07T11:33:28;101895.56;;;8.14;96.57
69784;BME280;57054;51.978;4.498;2023-04-07T11:35:57;101892.97;;;8.14;96.17
69784;BME280;57054;51.978;4.498;2023-04-07T11:38:24;101886.91;;;8.14;95.54
69784;BME280;57054;51.978;4.498;2023-04-07T11:40:50;101896.44;;;8.15;95.79
69784;BME280;57054;51.978;4.498;2023-04-07T11:43:26;101897.31;;;8.17;95.89
69784;BME280;57054;51.978;4.498;2023-04-07T11:46:05;101902.47;;;8.18;95.64
69784;BME280;57054;51.978;4.498;2023-04-07T11:48:32;101895.47;;;8.20;95.40
69784;BME280;57054;51.978;4.498;2023-04-07T11:50:58;101900.69;;;8.22;95.69
69784;BME280;57054;51.978;4.498;2023-04-07T11:53:29;101893.69;;;8.24;95.57
69784;BME280;57054;51.978;4.498;2023-04-07T11:58:27;101893.66;;;8.27;94.95
69784;BME280;57054;51.978;4.498;2023-04-07T12:00:57;101894.50;;;8.29;94.18
69784;BME280;57054;51.978;4.498;2023-04-07T12:03:23;101904.03;;;8.32;93.54
69784;BME280;57054;51.978;4.498;2023-04-07T12:05:48;101915.34;;;8.32;93.38
69784;BME280;57054;51.978;4.498;2023-04-07T12:08:14;101908.38;;;8.33;92.34
69784;BME280;57054;51.978;4.498;2023-04-07T12:10:41;101910.97;;;8.34;92.02
69784;BME280;57054;51.978;4.498;2023-04-07T12:13:07;101921.38;;;8.37;92.28
69784;BME280;57054;51.978;4.498;2023-04-07T12:15:34;101918.75;;;8.37;92.29
69784;BME280;57054;51.978;4.498;2023-04-07T12:18:02;101918.72;;;8.40;92.06
69784;BME280;57054;51.978;4.498;2023-04-07T12:20:27;101909.16;;;8.42;91.73
69784;BME280;57054;51.978;4.498;2023-04-07T12:22:53;101928.25;;;8.44;91.50
69784;BME280;57054;51.978;4.498;2023-04-07T12:25:18;101924.75;;;8.45;90.99
69784;BME280;57054;51.978;4.498;2023-04-07T12:27:44;101923.88;;;8.47;90.71
69784;BME280;57054;51.978;4.498;2023-04-07T12:30:10;101926.47;;;8.47;90.34
69784;BME280;57054;51.978;4.498;2023-04-07T12:32:37;101937.78;;;8.47;90.82
69784;BME280;57054;51.978;4.498;2023-04-07T12:35:02;101942.16;;;8.45;90.64
69784;BME280;57054;51.978;4.498;2023-04-07T12:37:27;101937.78;;;8.47;90.85
69784;BME280;57054;51.978;4.498;2023-04-07T12:39:53;101936.06;;;8.46;89.51
69784;BME280;57054;51.978;4.498;2023-04-07T12:42:18;101938.69;;;8.46;90.04
69784;BME280;57054;51.978;4.498;2023-04-07T12:44:44;101935.19;;;8.45;90.17
69784;BME280;57054;51.978;4.498;2023-04-07T12:47:10;101939.53;;;8.47;91.13
69784;BME280;57054;51.978;4.498;2023-04-07T12:49:36;101942.16;;;8.47;91.40
69784;BME280;57054;51.978;4.498;2023-04-07T12:52:02;101934.31;;;8.47;91.47
69784;BME280;57054;51.978;4.498;2023-04-07T12:54:27;101948.22;;;8.47;91.70
69784;BME280;57054;51.978;4.498;2023-04-07T12:56:54;101943.00;;;8.47;91.45
69784;BME280;57054;51.978;4.498;2023-04-07T12:59:21;101947.38;;;8.47;91.00
69784;BME280;57054;51.978;4.498;2023-04-07T13:01:48;101950.00;;;8.45;90.64
69784;BME280;57054;51.978;4.498;2023-04-07T13:04:13;101950.88;;;8.44;90.81
69784;BME280;57054;51.978;4.498;2023-04-07T13:06:39;101950.88;;;8.44;90.25
69784;BME280;57054;51.978;4.498;2023-04-07T13:09:04;101943.91;;;8.44;90.20
69784;BME280;57054;51.978;4.498;2023-04-07T13:11:30;101945.63;;;8.45;90.01
69784;BME280;57054;51.978;4.498;2023-04-07T13:13:55;101945.66;;;8.44;90.29
69784;BME280;57054;51.978;4.498;2023-04-07T13:16:20;101948.25;;;8.45;90.98